sensor_id;sensor_type;location;lat;lon;timestamp;pressure;altitude;pressure_sealevel;temperature;humidity
74722;BME280;63470;49.826;6.740;2023-04-10T00:01:51;100828.20;;;4.31;55.39
74722;BME280;63470;49.826;6.740;2023-04-10T00:04:19;100825.59;;;4.30;55.32
74722;BME280;63470;49.826;6.740;2023-04-10T00:06:51;100823.30;;;4.30;55.33
74722;BME280;63470;49.826;6.740;2023-04-10T00:09:23;100819.88;;;4.31;55.30
74722;BME280;63470;49.826;6.740;2023-04-10T00:11:49;100820.45;;;4.32;55.21
74722;BME280;63470;49.826;6.740;2023-04-10T00:14:27;100815.22;;;4.31;55.18
74722;BME280;63470;49.826;6.740;2023-04-10T00:16:49;100809.55;;;4.30;55.19
74722;BME280;63470;49.826;6.740;2023-04-10T00:19:22;100811.75;;;4.29;55.19
74722;BME280;63470;49.826;6.740;2023-04-10T00:21:51;100810.19;;;4.28;55.25
74722;BME280;63470;49.826;6.740;2023-04-10T00:24:21;100810.46;;;4.25;55.31
74722;BME280;63470;49.826;6.740;2023-04-10T00:26:52;100812.78;;;4.24;55.37
74722;BME280;63470;49.826;6.740;2023-04-10T00:29:22;100810.50;;;4.28;55.31
74722;BME280;63470;49.826;6.740;2023-04-10T00:31:53;100810.25;;;4.28;55.23
74722;BME280;63470;49.826;6.740;2023-04-10T00:34:26;100814.66;;;4.27;55.22
74722;BME280;63470;49.826;6.740;2023-04-10T00:36:53;100811.64;;;4.24;55.24
74722;BME280;63470;49.826;6.740;2023-04-10T00:39:26;100814.12;;;4.20;55.31
74722;BME280;63470;49.826;6.740;2023-04-10T00:41:55;100813.39;;;4.17;55.37
74722;BME280;63470;49.826;6.740;2023-04-10T00:44:25;100806.89;;;4.14;55.45
74722;BME280;63470;49.826;6.740;2023-04-10T00:46:56;100809.95;;;4.15;55.43
74722;BME280;63470;49.826;6.740;2023-04-10T00:49:26;100807.08;;;4.19;55.36
74722;BME280;63470;49.826;6.740;2023-04-10T00:51:57;100803.29;;;4.22;55.30
74722;BME280;63470;49.826;6.740;2023-04-10T00:54:30;100805.39;;;4.22;55.26
74722;BME280;63470;49.826;6.740;2023-04-10T00:56:58;100799.86;;;4.23;55.23
74722;BME280;63470;49.826;6.740;2023-04-10T00:59:29;100796.41;;;4.21;55.23
74722;BME280;63470;49.826;6.740;2023-04-10T01:01:59;100797.84;;;4.20;55.21
74722;BME280;63470;49.826;6.740;2023-04-10T01:04:33;100795.41;;;4.16;55.22
74722;BME280;63470;49.826;6.740;2023-04-10T01:07:09;100790.50;;;4.11;55.26
74722;BME280;63470;49.826;6.740;2023-04-10T01:17:08;100776.55;;;3.99;55.52
74722;BME280;63470;49.826;6.740;2023-04-10T01:22:05;100780.44;;;3.98;55.51
74722;BME280;63470;49.826;6.740;2023-04-10T01:27:30;100779.41;;;3.95;55.54
74722;BME280;63470;49.826;6.740;2023-04-10T01:29:40;100774.41;;;3.93;55.58
74722;BME280;63470;49.826;6.740;2023-04-10T01:32:12;100768.77;;;3.94;55.57
74722;BME280;63470;49.826;6.740;2023-04-10T01:34:48;100767.78;;;3.97;55.50
74722;BME280;63470;49.826;6.740;2023-04-10T01:37:15;100756.40;;;3.99;55.44
74722;BME280;63470;49.826;6.740;2023-04-10T01:39:40;100756.23;;;3.99;55.46
74722;BME280;63470;49.826;6.740;2023-04-10T01:42:11;100744.09;;;4.01;55.46
74722;BME280;63470;49.826;6.740;2023-04-10T01:44:41;100740.92;;;4.01;55.48
74722;BME280;63470;49.826;6.740;2023-04-10T01:47:14;100739.84;;;4.05;55.48
74722;BME280;63470;49.826;6.740;2023-04-10T01:49:46;100740.34;;;4.06;55.45
74722;BME280;63470;49.826;6.740;2023-04-10T01:52:15;100734.84;;;4.05;55.49
74722;BME280;63470;49.826;6.740;2023-04-10T01:54:44;100735.13;;;4.03;55.53
74722;BME280;63470;49.826;6.740;2023-04-10T01:57:17;100735.98;;;4.00;55.56
74722;BME280;63470;49.826;6.740;2023-04-10T01:59:44;100733.16;;;4.01;55.60
74722;BME280;63470;49.826;6.740;2023-04-10T02:02:12;100723.61;;;4.02;55.55
74722;BME280;63470;49.826;6.740;2023-04-10T02:04:44;100717.10;;;4.03;55.48
74722;BME280;63470;49.826;6.740;2023-04-10T02:07:17;100709.57;;;4.01;55.48
74722;BME280;63470;49.826;6.740;2023-04-10T02:10:12;100706.84;;;3.96;55.57
74722;BME280;63470;49.826;6.740;2023-04-10T02:12:21;100704.36;;;3.93;55.63
74722;BME280;63470;49.826;6.740;2023-04-10T02:14:48;100704.18;;;3.93;55.66
74722;BME280;63470;49.826;6.740;2023-04-10T02:17:18;100710.56;;;3.94;55.58
74722;BME280;63470;49.826;6.740;2023-04-10T02:19:47;100712.36;;;3.93;55.57
74722;BME280;63470;49.826;6.740;2023-04-10T02:22:16;100712.95;;;3.90;55.57
74722;BME280;63470;49.826;6.740;2023-04-10T02:24:48;100707.48;;;3.91;55.53
74722;BME280;63470;49.826;6.740;2023-04-10T02:27:30;100701.39;;;3.92;55.46
74722;BME280;63470;49.826;6.740;2023-04-10T02:29:51;100706.34;;;3.94;55.34
74722;BME280;63470;49.826;6.740;2023-04-10T02:32:21;100705.00;;;3.93;55.38
74722;BME280;63470;49.826;6.740;2023-04-10T02:34:47;100705.50;;;3.90;55.41
74722;BME280;63470;49.826;6.740;2023-04-10T02:37:20;100710.12;;;3.87;55.47
74722;BME280;63470;49.826;6.740;2023-04-10T02:39:48;100710.56;;;3.86;55.51
74722;BME280;63470;49.826;6.740;2023-04-10T02:42:19;100709.00;;;3.80;55.59
74722;BME280;63470;49.826;6.740;2023-04-10T02:44:51;100705.11;;;3.78;55.62
74722;BME280;63470;49.826;6.740;2023-04-10T02:47:20;100708.54;;;3.74;55.68
74722;BME280;63470;49.826;6.740;2023-04-10T02:49:50;100706.69;;;3.73;55.67
74722;BME280;63470;49.826;6.740;2023-04-10T02:52:26;100708.83;;;3.75;55.59
74722;BME280;63470;49.826;6.740;2023-04-10T02:54:54;100711.62;;;3.72;55.61
74722;BME280;63470;49.826;6.740;2023-04-10T02:57:24;100704.11;;;3.68;55.69
74722;BME280;63470;49.826;6.740;2023-04-10T02:59:57;100706.95;;;3.71;55.62
74722;BME280;63470;49.826;6.740;2023-04-10T03:02:25;100707.55;;;3.73;55.55
74722;BME280;63470;49.826;6.740;2023-04-10T03:04:56;100711.09;;;3.73;55.50
74722;BME280;63470;49.826;6.740;2023-04-10T03:07:29;100709.41;;;3.71;55.52
74722;BME280;63470;49.826;6.740;2023-04-10T03:09:54;100713.03;;;3.69;55.54
74722;BME280;63470;49.826;6.740;2023-04-10T03:12:25;100719.31;;;3.66;55.57
74722;BME280;63470;49.826;6.740;2023-04-10T03:15:00;100716.88;;;3.65;55.58
74722;BME280;63470;49.826;6.740;2023-04-10T03:17:28;100718.44;;;3.70;55.52
74722;BME280;63470;49.826;6.740;2023-04-10T03:19:59;100714.25;;;3.73;55.50
74722;BME280;63470;49.826;6.740;2023-04-10T03:22:32;100709.20;;;3.74;55.45
74722;BME280;63470;49.826;6.740;2023-04-10T03:25:00;100706.46;;;3.71;55.49
74722;BME280;63470;49.826;6.740;2023-04-10T03:27:36;100703.80;;;3.68;55.54
74722;BME280;63470;49.826;6.740;2023-04-10T03:30:03;100694.41;;;3.63;55.64
74722;BME280;63470;49.826;6.740;2023-04-10T03:32:33;100694.90;;;3.60;55.70
74722;BME280;63470;49.826;6.740;2023-04-10T03:35:00;100687.95;;;3.56;55.70
74722;BME280;63470;49.826;6.740;2023-04-10T03:37:31;100684.88;;;3.52;55.76
74722;BME280;63470;49.826;6.740;2023-04-10T03:40:05;100680.17;;;3.50;55.77
74722;BME280;63470;49.826;6.740;2023-04-10T03:42:34;100677.90;;;3.53;55.71
74722;BME280;63470;49.826;6.740;2023-04-10T03:45:12;100678.30;;;3.58;55.56
74722;BME280;63470;49.826;6.740;2023-04-10T03:47:33;100677.91;;;3.63;55.44
74722;BME280;63470;49.826;6.740;2023-04-10T03:50:05;100679.51;;;3.62;55.43
74722;BME280;63470;49.826;6.740;2023-04-10T03:52:35;100678.20;;;3.58;55.50
74722;BME280;63470;49.826;6.740;2023-04-10T03:55:08;100675.91;;;3.52;55.58
74722;BME280;63470;49.826;6.740;2023-04-10T03:57:37;100675.42;;;3.49;55.64
74722;BME280;63470;49.826;6.740;2023-04-10T04:00:06;100674.92;;;3.44;55.71
74722;BME280;63470;49.826;6.740;2023-04-10T04:02:37;100672.28;;;3.42;55.74
74722;BME280;63470;49.826;6.740;2023-04-10T04:05:09;100673.00;;;3.42;55.70
74722;BME280;63470;49.826;6.740;2023-04-10T04:07:40;100669.58;;;3.37;55.76
74722;BME280;63470;49.826;6.740;2023-04-10T04:10:09;100668.18;;;3.33;55.76
74722;BME280;63470;49.826;6.740;2023-04-10T04:12:39;100665.73;;;3.29;55.77
74722;BME280;63470;49.826;6.740;2023-04-10T04:15:11;100665.83;;;3.25;55.82
74722;BME280;63470;49.826;6.740;2023-04-10T04:17:41;100668.06;;;3.20;55.85
74722;BME280;63470;49.826;6.740;2023-04-10T04:20:12;100673.62;;;3.13;55.94
74722;BME280;63470;49.826;6.740;2023-04-10T04:22:44;100678.12;;;3.06;56.06
74722;BME280;63470;49.826;6.740;2023-04-10T04:25:11;100678.29;;;3.02;56.08
74722;BME280;63470;49.826;6.740;2023-04-10T04:27:43;100677.97;;;2.98;56.07
74722;BME280;63470;49.826;6.740;2023-04-10T04:30:16;100676.23;;;2.97;56.03
74722;BME280;63470;49.826;6.740;2023-04-10T04:32:46;100675.76;;;2.98;55.97
74722;BME280;63470;49.826;6.740;2023-04-10T04:35:14;100684.97;;;2.95;55.99
74722;BME280;63470;49.826;6.740;2023-04-10T04:37:42;100685.45;;;2.90;56.05
74722;BME280;63470;49.826;6.740;2023-04-10T04:40:16;100689.46;;;2.91;56.03
74722;BME280;63470;49.826;6.740;2023-04-10T04:42:46;100689.95;;;2.90;56.01
74722;BME280;63470;49.826;6.740;2023-04-10T04:45:15;100686.44;;;2.86;56.01
74722;BME280;63470;49.826;6.740;2023-04-10T04:47:48;100685.61;;;2.83;56.08
74722;BME280;63470;49.826;6.740;2023-04-10T04:50:17;100692.64;;;2.81;56.13
74722;BME280;63470;49.826;6.740;2023-04-10T04:52:50;100688.82;;;2.85;56.07
74722;BME280;63470;49.826;6.740;2023-04-10T04:55:16;100691.72;;;2.90;56.00
74722;BME280;63470;49.826;6.740;2023-04-10T04:57:49;100693.84;;;2.91;55.99
74722;BME280;63470;49.826;6.740;2023-04-10T05:00:22;100694.51;;;2.94;55.97
74722;BME280;63470;49.826;6.740;2023-04-10T05:02:53;100695.12;;;2.97;55.88
74722;BME280;63470;49.826;6.740;2023-04-10T05:05:18;100696.00;;;2.96;55.87
74722;BME280;63470;49.826;6.740;2023-04-10T05:07:49;100699.64;;;2.95;55.83
74722;BME280;63470;49.826;6.740;2023-04-10T05:10:22;100696.32;;;2.95;55.85
74722;BME280;63470;49.826;6.740;2023-04-10T05:12:52;100696.42;;;2.93;55.87
74722;BME280;63470;49.826;6.740;2023-04-10T05:15:25;100693.69;;;2.91;55.93
74722;BME280;63470;49.826;6.740;2023-04-10T05:17:53;100698.91;;;2.91;56.03
74722;BME280;63470;49.826;6.740;2023-04-10T05:20:26;100706.55;;;2.93;56.07
74722;BME280;63470;49.826;6.740;2023-04-10T05:22:55;100708.36;;;2.94;56.21
74722;BME280;63470;49.826;6.740;2023-04-10T05:25:25;100702.22;;;3.01;56.28
74722;BME280;63470;49.826;6.740;2023-04-10T05:27:55;100705.97;;;3.26;55.98
74722;BME280;63470;49.826;6.740;2023-04-10T05:30:26;100696.48;;;3.66;55.45
74722;BME280;63470;49.826;6.740;2023-04-10T05:32:59;100700.08;;;4.05;55.16
74722;BME280;63470;49.826;6.740;2023-04-10T05:35:26;100700.34;;;4.40;54.90
74722;BME280;63470;49.826;6.740;2023-04-10T05:37:57;100695.98;;;4.68;54.79
74722;BME280;63470;49.826;6.740;2023-04-10T05:40:29;100694.59;;;4.85;54.87
74722;BME280;63470;49.826;6.740;2023-04-10T05:42:57;100701.78;;;5.02;54.91
74722;BME280;63470;49.826;6.740;2023-04-10T05:45:28;100706.08;;;5.16;54.96
74722;BME280;63470;49.826;6.740;2023-04-10T05:47:59;100708.65;;;5.32;54.96
74722;BME280;63470;49.826;6.740;2023-04-10T05:50:30;100704.88;;;5.78;54.70
74722;BME280;63470;49.826;6.740;2023-04-10T05:53:03;100706.92;;;6.23;54.63
74722;BME280;63470;49.826;6.740;2023-04-10T05:55:32;100700.77;;;6.60;54.59
74722;BME280;63470;49.826;6.740;2023-04-10T05:58:02;100698.00;;;6.97;54.48
74722;BME280;63470;49.826;6.740;2023-04-10T06:00:29;100697.59;;;7.48;54.44
74722;BME280;63470;49.826;6.740;2023-04-10T06:03:00;100696.02;;;8.04;54.41
74722;BME280;63470;49.826;6.740;2023-04-10T06:05:31;100693.23;;;8.54;54.44
74722;BME280;63470;49.826;6.740;2023-04-10T06:08:01;100694.33;;;8.91;54.48
74722;BME280;63470;49.826;6.740;2023-04-10T06:10:35;100694.61;;;9.13;55.14
74722;BME280;63470;49.826;6.740;2023-04-10T06:13:03;100692.56;;;9.15;56.50
74722;BME280;63470;49.826;6.740;2023-04-10T06:15:36;100686.55;;;9.14;57.07
74722;BME280;63470;49.826;6.740;2023-04-10T06:18:07;100684.24;;;9.16;57.05
74722;BME280;63470;49.826;6.740;2023-04-10T06:20:34;100682.11;;;9.09;56.98
74722;BME280;63470;49.826;6.740;2023-04-10T06:23:05;100683.94;;;8.97;56.93
74722;BME280;63470;49.826;6.740;2023-04-10T06:25:38;100685.44;;;9.02;56.49
74722;BME280;63470;49.826;6.740;2023-04-10T06:28:06;100686.22;;;9.33;55.45
74722;BME280;63470;49.826;6.740;2023-04-10T06:30:37;100685.36;;;9.23;55.28
74722;BME280;63470;49.826;6.740;2023-04-10T06:33:10;100681.67;;;9.15;55.71
74722;BME280;63470;49.826;6.740;2023-04-10T06:35:41;100681.42;;;9.62;55.13
74722;BME280;63470;49.826;6.740;2023-04-10T06:38:11;100680.36;;;10.05;54.71
74722;BME280;63470;49.826;6.740;2023-04-10T06:40:42;100674.02;;;10.52;54.67
74722;BME280;63470;49.826;6.740;2023-04-10T06:43:10;100671.28;;;11.09;54.17
74722;BME280;63470;49.826;6.740;2023-04-10T06:45:42;100665.77;;;11.49;53.56
74722;BME280;63470;49.826;6.740;2023-04-10T06:48:13;100657.67;;;11.70;53.59
74722;BME280;63470;49.826;6.740;2023-04-10T06:50:42;100652.19;;;11.59;54.07
74722;BME280;63470;49.826;6.740;2023-04-10T06:53:12;100648.05;;;11.65;54.22
74722;BME280;63470;49.826;6.740;2023-04-10T06:55:43;100646.21;;;11.69;54.42
74722;BME280;63470;49.826;6.740;2023-04-10T06:58:13;100649.09;;;11.60;54.88
74722;BME280;63470;49.826;6.740;2023-04-10T07:00:44;100654.03;;;11.70;54.95
74722;BME280;63470;49.826;6.740;2023-04-10T07:03:14;100652.31;;;11.93;54.86
74722;BME280;63470;49.826;6.740;2023-04-10T07:05:45;100655.29;;;12.25;54.45
74722;BME280;63470;49.826;6.740;2023-04-10T07:08:16;100654.94;;;12.42;54.00
74722;BME280;63470;49.826;6.740;2023-04-10T07:10:46;100655.92;;;12.27;54.27
74722;BME280;63470;49.826;6.740;2023-04-10T07:13:19;100648.79;;;12.23;54.50
74722;BME280;63470;49.826;6.740;2023-04-10T07:15:48;100650.08;;;12.24;54.49
74722;BME280;63470;49.826;6.740;2023-04-10T07:18:18;100643.98;;;12.13;54.47
74722;BME280;63470;49.826;6.740;2023-04-10T07:20:50;100642.11;;;12.12;54.54
74722;BME280;63470;49.826;6.740;2023-04-10T07:23:22;100638.98;;;12.14;54.70
74722;BME280;63470;49.826;6.740;2023-04-10T07:25:51;100641.54;;;12.32;54.43
74722;BME280;63470;49.826;6.740;2023-04-10T07:28:26;100635.83;;;12.55;54.25
74722;BME280;63470;49.826;6.740;2023-04-10T07:30:51;100633.92;;;12.69;54.28
74722;BME280;63470;49.826;6.740;2023-04-10T07:33:24;100629.58;;;13.01;54.02
74722;BME280;63470;49.826;6.740;2023-04-10T07:35:53;100623.95;;;13.35;53.70
74722;BME280;63470;49.826;6.740;2023-04-10T07:38:24;100623.58;;;13.86;53.25
74722;BME280;63470;49.826;6.740;2023-04-10T07:40:56;100621.56;;;14.25;52.68
74722;BME280;63470;49.826;6.740;2023-04-10T07:43:24;100617.20;;;14.63;51.85
74722;BME280;63470;49.826;6.740;2023-04-10T07:45:56;100614.61;;;14.68;51.65
74722;BME280;63470;49.826;6.740;2023-04-10T07:48:26;100609.55;;;14.45;52.14
74722;BME280;63470;49.826;6.740;2023-04-10T07:50:57;100612.38;;;14.44;52.43
74722;BME280;63470;49.826;6.740;2023-04-10T07:53:26;100614.13;;;14.57;52.50
74722;BME280;63470;49.826;6.740;2023-04-10T07:55:56;100607.41;;;14.83;52.19
74722;BME280;63470;49.826;6.740;2023-04-10T07:58:26;100598.75;;;14.91;52.17
74722;BME280;63470;49.826;6.740;2023-04-10T08:00:57;100591.30;;;15.08;52.53
74722;BME280;63470;49.826;6.740;2023-04-10T08:03:28;100590.89;;;15.31;52.71
74722;BME280;63470;49.826;6.740;2023-04-10T08:05:58;100595.02;;;15.60;52.71
74722;BME280;63470;49.826;6.740;2023-04-10T08:08:28;100595.78;;;15.99;52.26
74722;BME280;63470;49.826;6.740;2023-04-10T08:10:59;100589.65;;;16.33;51.79
74722;BME280;63470;49.826;6.740;2023-04-10T08:13:29;100581.38;;;16.44;51.80
74722;BME280;63470;49.826;6.740;2023-04-10T08:16:01;100578.23;;;16.54;52.05
74722;BME280;63470;49.826;6.740;2023-04-10T08:18:31;100577.21;;;16.96;51.95
74722;BME280;63470;49.826;6.740;2023-04-10T08:21:01;100573.20;;;17.56;51.74
74722;BME280;63470;49.826;6.740;2023-04-10T08:23:32;100571.98;;;18.53;50.77
74722;BME280;63470;49.826;6.740;2023-04-10T08:26:02;100574.64;;;19.13;50.06
74722;BME280;63470;49.826;6.740;2023-04-10T08:28:33;100566.88;;;19.70;49.58
74722;BME280;63470;49.826;6.740;2023-04-10T08:31:04;100566.09;;;20.26;49.53
74722;BME280;63470;49.826;6.740;2023-04-10T08:33:34;100555.06;;;20.99;49.31
74722;BME280;63470;49.826;6.740;2023-04-10T08:36:07;100552.36;;;21.48;49.16
74722;BME280;63470;49.826;6.740;2023-04-10T08:38:35;100551.25;;;22.07;49.08
74722;BME280;63470;49.826;6.740;2023-04-10T08:41:08;100546.86;;;22.70;48.92
74722;BME280;63470;49.826;6.740;2023-04-10T08:43:37;100536.73;;;23.43;48.54
74722;BME280;63470;49.826;6.740;2023-04-10T08:46:08;100532.10;;;23.66;48.62
74722;BME280;63470;49.826;6.740;2023-04-10T08:48:39;100522.51;;;24.06;48.40
74722;BME280;63470;49.826;6.740;2023-04-10T08:51:13;100520.95;;;23.89;48.96
74722;BME280;63470;49.826;6.740;2023-04-10T08:53:39;100515.91;;;23.61;49.56
74722;BME280;63470;49.826;6.740;2023-04-10T08:56:11;100513.03;;;23.55;49.60
74722;BME280;63470;49.826;6.740;2023-04-10T08:58:40;100508.14;;;23.34;49.92
74722;BME280;63470;49.826;6.740;2023-04-10T09:01:13;100509.73;;;22.71;50.70
74722;BME280;63470;49.826;6.740;2023-04-10T09:03:41;100514.23;;;22.23;51.45
74722;BME280;63470;49.826;6.740;2023-04-10T09:06:11;100506.42;;;22.06;51.40
74722;BME280;63470;49.826;6.740;2023-04-10T09:08:42;100500.91;;;21.77;51.61
74722;BME280;63470;49.826;6.740;2023-04-10T09:11:13;100491.05;;;21.73;51.52
74722;BME280;63470;49.826;6.740;2023-04-10T09:13:43;100487.10;;;21.79;51.34
74722;BME280;63470;49.826;6.740;2023-04-10T09:16:13;100480.91;;;21.77;51.23
74722;BME280;63470;49.826;6.740;2023-04-10T09:18:50;100481.59;;;21.65;51.49
74722;BME280;63470;49.826;6.740;2023-04-10T09:21:19;100477.77;;;21.73;51.43
74722;BME280;63470;49.826;6.740;2023-04-10T09:23:46;100470.24;;;21.72;51.50
74722;BME280;63470;49.826;6.740;2023-04-10T09:26:24;100465.11;;;21.57;51.81
74722;BME280;63470;49.826;6.740;2023-04-10T09:28:56;100462.56;;;21.69;51.66
74722;BME280;63470;49.826;6.740;2023-04-10T09:31:29;100456.47;;;21.72;51.68
74722;BME280;63470;49.826;6.740;2023-04-10T09:33:46;100457.12;;;21.89;51.46
74722;BME280;63470;49.826;6.740;2023-04-10T09:36:18;100453.69;;;22.10;51.35
74722;BME280;63470;49.826;6.740;2023-04-10T09:38:50;100445.11;;;22.79;50.63
74722;BME280;63470;49.826;6.740;2023-04-10T09:41:17;100444.38;;;23.37;50.04
74722;BME280;63470;49.826;6.740;2023-04-10T09:43:47;100443.98;;;23.93;49.36
74722;BME280;63470;49.826;6.740;2023-04-10T09:46:27;100440.08;;;24.23;49.21
74722;BME280;63470;49.826;6.740;2023-04-10T09:48:56;100442.48;;;24.87;48.57
74722;BME280;63470;49.826;6.740;2023-04-10T09:51:33;100437.09;;;24.82;48.94
74722;BME280;63470;49.826;6.740;2023-04-10T09:53:50;100434.39;;;24.97;49.00
74722;BME280;63470;49.826;6.740;2023-04-10T09:56:21;100435.67;;;24.97;49.22
74722;BME280;63470;49.826;6.740;2023-04-10T09:58:51;100427.81;;;24.86;49.57
74722;BME280;63470;49.826;6.740;2023-04-10T10:01:21;100427.37;;;24.60;50.07
74722;BME280;63470;49.826;6.740;2023-04-10T10:03:53;100428.28;;;24.57;50.15
74722;BME280;63470;49.826;6.740;2023-04-10T10:06:21;100431.45;;;24.59;50.25
74722;BME280;63470;49.826;6.740;2023-04-10T10:08:52;100428.47;;;24.78;50.01
74722;BME280;63470;49.826;6.740;2023-04-10T10:11:24;100426.73;;;24.71;50.08
74722;BME280;63470;49.826;6.740;2023-04-10T10:13:57;100426.65;;;24.88;50.01
74722;BME280;63470;49.826;6.740;2023-04-10T10:16:36;100418.31;;;24.98;49.82
74722;BME280;63470;49.826;6.740;2023-04-10T10:19:05;100411.23;;;25.01;49.91
74722;BME280;63470;49.826;6.740;2023-04-10T10:21:28;100407.31;;;24.80;50.08
74722;BME280;63470;49.826;6.740;2023-04-10T10:23:57;100406.52;;;24.26;50.86
74722;BME280;63470;49.826;6.740;2023-04-10T10:26:26;100409.43;;;23.71;51.56
74722;BME280;63470;49.826;6.740;2023-04-10T10:28:57;100407.25;;;23.58;51.64
74722;BME280;63470;49.826;6.740;2023-04-10T10:31:32;100406.25;;;23.64;51.45
74722;BME280;63470;49.826;6.740;2023-04-10T10:33:57;100400.98;;;23.83;51.10
74722;BME280;63470;49.826;6.740;2023-04-10T10:36:27;100403.95;;;23.77;51.05
74722;BME280;63470;49.826;6.740;2023-04-10T10:41:33;100394.91;;;23.17;51.71
74722;BME280;63470;49.826;6.740;2023-04-10T10:44:22;100393.83;;;23.02;51.85
74722;BME280;63470;49.826;6.740;2023-04-10T10:46:39;100380.47;;;23.16;51.61
74722;BME280;63470;49.826;6.740;2023-04-10T10:48:59;100373.36;;;23.54;50.97
74722;BME280;63470;49.826;6.740;2023-04-10T10:51:43;100366.95;;;23.71;50.65
74722;BME280;63470;49.826;6.740;2023-04-10T10:54:01;100360.41;;;23.94;50.45
74722;BME280;63470;49.826;6.740;2023-04-10T10:56:34;100359.64;;;24.25;50.09
74722;BME280;63470;49.826;6.740;2023-04-10T10:59:03;100356.17;;;24.34;49.92
74722;BME280;63470;49.826;6.740;2023-04-10T11:01:32;100351.42;;;24.02;50.45
74722;BME280;63470;49.826;6.740;2023-04-10T11:06:50;100345.75;;;23.24;51.35
74722;BME280;63470;49.826;6.740;2023-04-10T11:09:05;100335.09;;;22.91;51.72
74722;BME280;63470;49.826;6.740;2023-04-10T11:14:11;100331.86;;;22.45;52.08
74722;BME280;63470;49.826;6.740;2023-04-10T11:16:43;100334.52;;;22.35;52.01
74722;BME280;63470;49.826;6.740;2023-04-10T11:19:07;100338.94;;;22.32;51.92
74722;BME280;63470;49.826;6.740;2023-04-10T11:22:00;100334.58;;;22.15;52.04
74722;BME280;63470;49.826;6.740;2023-04-10T11:24:07;100325.39;;;22.05;52.10
74722;BME280;63470;49.826;6.740;2023-04-10T11:26:39;100317.30;;;21.93;52.04
74722;BME280;63470;49.826;6.740;2023-04-10T11:31:39;100319.94;;;21.42;52.33
74722;BME280;63470;49.826;6.740;2023-04-10T11:34:10;100316.66;;;21.27;52.43
74722;BME280;63470;49.826;6.740;2023-04-10T11:36:41;100313.61;;;21.37;52.17
74722;BME280;63470;49.826;6.740;2023-04-10T11:39:13;100305.48;;;21.33;52.08
74722;BME280;63470;49.826;6.740;2023-04-10T11:41:45;100311.97;;;21.16;52.08
74722;BME280;63470;49.826;6.740;2023-04-10T11:44:12;100313.23;;;21.07;52.11
74722;BME280;63470;49.826;6.740;2023-04-10T11:46:43;100315.38;;;20.86;52.27
74722;BME280;63470;49.826;6.740;2023-04-10T11:49:16;100311.14;;;20.73;52.36
74722;BME280;63470;49.826;6.740;2023-04-10T11:51:45;100312.89;;;20.96;52.03
74722;BME280;63470;49.826;6.740;2023-04-10T11:54:18;100308.02;;;21.17;51.70
74722;BME280;63470;49.826;6.740;2023-04-10T11:56:54;100310.92;;;21.33;51.51
74722;BME280;63470;49.826;6.740;2023-04-10T11:59:19;100313.02;;;21.43;51.32
74722;BME280;63470;49.826;6.740;2023-04-10T12:01:45;100311.84;;;21.43;51.29
74722;BME280;63470;49.826;6.740;2023-04-10T12:04:17;100308.16;;;21.38;51.38
74722;BME280;63470;49.826;6.740;2023-04-10T12:06:48;100305.19;;;21.36;51.48
74722;BME280;63470;49.826;6.740;2023-04-10T12:09:19;100302.58;;;21.39;51.44
74722;BME280;63470;49.826;6.740;2023-04-10T12:11:52;100297.68;;;21.33;51.42
74722;BME280;63470;49.826;6.740;2023-04-10T12:14:18;100291.64;;;21.31;51.37
74722;BME280;63470;49.826;6.740;2023-04-10T12:16:49;100285.19;;;21.41;51.29
74722;BME280;63470;49.826;6.740;2023-04-10T12:19:19;100273.84;;;21.60;50.96
74722;BME280;63470;49.826;6.740;2023-04-10T12:21:48;100278.47;;;21.63;50.81
74722;BME280;63470;49.826;6.740;2023-04-10T12:24:46;100280.08;;;21.57;50.88
74722;BME280;63470;49.826;6.740;2023-04-10T12:26:49;100277.00;;;21.51;50.99
74722;BME280;63470;49.826;6.740;2023-04-10T12:29:24;100273.22;;;21.56;50.92
74722;BME280;63470;49.826;6.740;2023-04-10T12:31:51;100273.05;;;21.43;50.99
74722;BME280;63470;49.826;6.740;2023-04-10T12:34:20;100275.23;;;21.33;51.10
74722;BME280;63470;49.826;6.740;2023-04-10T12:36:51;100266.53;;;21.18;51.18
74722;BME280;63470;49.826;6.740;2023-04-10T12:39:22;100264.89;;;21.12;51.23
74722;BME280;63470;49.826;6.740;2023-04-10T12:41:51;100270.80;;;21.10;51.19
74722;BME280;63470;49.826;6.740;2023-04-10T12:44:22;100268.23;;;21.04;51.18
74722;BME280;63470;49.826;6.740;2023-04-10T12:46:59;100262.23;;;20.91;51.32
74722;BME280;63470;49.826;6.740;2023-04-10T12:49:22;100261.45;;;20.80;51.37
74722;BME280;63470;49.826;6.740;2023-04-10T12:51:52;100256.24;;;20.73;51.32
74722;BME280;63470;49.826;6.740;2023-04-10T12:54:30;100259.62;;;20.64;51.31
74722;BME280;63470;49.826;6.740;2023-04-10T12:56:54;100251.98;;;20.49;51.40
74722;BME280;63470;49.826;6.740;2023-04-10T12:59:24;100249.91;;;20.41;51.39
74722;BME280;63470;49.826;6.740;2023-04-10T13:01:54;100242.65;;;20.38;51.38
74722;BME280;63470;49.826;6.740;2023-04-10T13:04:25;100242.81;;;20.36;51.34
74722;BME280;63470;49.826;6.740;2023-04-10T13:06:56;100240.67;;;20.31;51.38
74722;BME280;63470;49.826;6.740;2023-04-10T13:09:26;100242.23;;;20.28;51.41
74722;BME280;63470;49.826;6.740;2023-04-10T13:11:57;100237.34;;;20.35;51.31
74722;BME280;63470;49.826;6.740;2023-04-10T13:14:28;100232.07;;;20.42;51.22
74722;BME280;63470;49.826;6.740;2023-04-10T13:16:58;100224.25;;;20.46;51.12
74722;BME280;63470;49.826;6.740;2023-04-10T13:19:29;100221.22;;;20.48;51.08
74722;BME280;63470;49.826;6.740;2023-04-10T13:22:01;100218.36;;;20.45;51.09
74722;BME280;63470;49.826;6.740;2023-04-10T13:24:30;100215.64;;;20.42;51.07
74722;BME280;63470;49.826;6.740;2023-04-10T13:27:01;100205.84;;;20.30;51.17
74722;BME280;63470;49.826;6.740;2023-04-10T13:29:31;100204.94;;;20.22;51.22
74722;BME280;63470;49.826;6.740;2023-04-10T13:32:05;100203.62;;;20.13;51.25
74722;BME280;63470;49.826;6.740;2023-04-10T13:34:33;100195.45;;;20.04;51.34